Wollogorang, Australia
Current Conditions -  °F | °C
As of 7:00 PM on Thursday 23 Oct 2014 (Local Time) from YGTE Reporting Station
Clear Clear  
Wind Chill: 81°   Ceiling: Unl
Heat Index: 84°   Visibility: 6mi
Dew Point: 70°   Wind: 5mph
Humidity: 70%   Direction: 80°E
Pressure: 29.91"   Gusts: NA
Location:  17.2°S, 137.93°E
Report Text: YGTE 231000Z AUTO 08004KT 9999 // NCD 27/21 Q1013
Loading
Personal Weather Stations






























Interactive Weather Map
Tropical Storm Tracking
New forecast layout! Learn more

10-Day Weather Forecast

Advertisements
Track Severe Weather on mobile